createdAt,value
2023-03-08T00:01:13.229Z,100.00
2023-03-08T00:03:40.613Z,100.00
2023-03-08T00:06:09.285Z,100.00
2023-03-08T00:08:35.821Z,100.00
2023-03-08T00:11:06.751Z,100.00
2023-03-08T00:13:33.596Z,100.00
2023-03-08T00:16:04.822Z,100.00
2023-03-08T00:18:31.742Z,100.00
2023-03-08T00:21:06.656Z,100.00
2023-03-08T00:23:33.674Z,100.00
2023-03-08T00:26:00.221Z,100.00
2023-03-08T00:28:27.105Z,100.00
2023-03-08T00:31:02.751Z,100.00
2023-03-08T00:33:30.681Z,100.00
2023-03-08T00:36:03.061Z,100.00
2023-03-08T00:38:32.456Z,100.00
2023-03-08T00:40:59.315Z,100.00
2023-03-08T00:43:26.616Z,100.00
2023-03-08T00:45:53.438Z,100.00
2023-03-08T00:48:22.122Z,100.00
2023-03-08T00:50:48.826Z,100.00
2023-03-08T00:53:15.578Z,100.00
2023-03-08T00:55:52.479Z,100.00
2023-03-08T00:58:20.076Z,100.00
2023-03-08T01:00:46.923Z,100.00
2023-03-08T01:03:13.502Z,100.00
2023-03-08T01:05:41.374Z,100.00
2023-03-08T01:08:09.196Z,100.00
2023-03-08T01:10:36.244Z,100.00
2023-03-08T01:13:03.706Z,100.00
2023-03-08T01:15:30.482Z,100.00
2023-03-08T01:17:57.020Z,100.00
2023-03-08T01:20:23.513Z,100.00
2023-03-08T01:22:49.978Z,100.00
2023-03-08T01:25:16.766Z,100.00
2023-03-08T01:27:43.236Z,100.00
2023-03-08T01:30:10.489Z,100.00
2023-03-08T01:32:37.065Z,100.00
2023-03-08T01:35:05.378Z,100.00
2023-03-08T01:37:32.623Z,100.00
2023-03-08T01:39:59.083Z,100.00
2023-03-08T01:42:26.778Z,100.00
2023-03-08T01:45:03.266Z,100.00
2023-03-08T01:47:36.121Z,100.00
2023-03-08T01:50:17.220Z,100.00
2023-03-08T01:52:48.568Z,100.00
2023-03-08T01:55:17.302Z,100.00
2023-03-08T01:57:48.243Z,100.00
2023-03-08T02:00:22.827Z,100.00
2023-03-08T02:03:01.364Z,100.00
2023-03-08T02:05:29.517Z,100.00
2023-03-08T02:08:03.273Z,100.00
2023-03-08T02:10:35.353Z,100.00
2023-03-08T02:13:03.927Z,100.00
2023-03-08T02:15:31.072Z,100.00
2023-03-08T02:17:57.985Z,100.00
2023-03-08T02:20:35.634Z,100.00
2023-03-08T02:23:12.518Z,100.00
2023-03-08T02:25:42.290Z,100.00
2023-03-08T02:28:09.698Z,100.00
2023-03-08T02:30:38.403Z,100.00
2023-03-08T02:33:04.990Z,100.00
2023-03-08T02:35:31.569Z,100.00
2023-03-08T02:37:58.078Z,100.00
2023-03-08T02:40:25.278Z,99.73
2023-03-08T02:42:53.423Z,99.98
2023-03-08T02:45:20.240Z,98.94
2023-03-08T02:47:46.766Z,98.85
2023-03-08T02:50:13.539Z,98.87
2023-03-08T02:52:40.036Z,98.62
2023-03-08T02:55:07.227Z,98.73
2023-03-08T02:57:33.844Z,99.07
2023-03-08T03:00:00.969Z,98.62
2023-03-08T03:02:28.256Z,99.05
2023-03-08T03:04:55.288Z,98.64
2023-03-08T03:07:21.924Z,98.64
2023-03-08T03:09:49.768Z,98.60
2023-03-08T03:12:17.344Z,98.37
2023-03-08T03:14:43.998Z,98.52
2023-03-08T03:17:10.792Z,98.68
2023-03-08T03:19:38.425Z,98.31
2023-03-08T03:22:05.018Z,98.49
2023-03-08T03:24:31.866Z,98.54
2023-03-08T03:26:59.804Z,98.90
2023-03-08T03:29:30.705Z,98.86
2023-03-08T03:32:07.256Z,98.99
2023-03-08T03:34:34.231Z,98.38
2023-03-08T03:37:00.922Z,98.49
2023-03-08T03:39:30.606Z,98.00
2023-03-08T03:41:57.128Z,97.81
2023-03-08T03:44:24.059Z,97.68
2023-03-08T03:46:50.977Z,97.83
2023-03-08T03:49:23.010Z,97.51
2023-03-08T03:51:49.686Z,97.14
2023-03-08T03:54:22.122Z,97.21
2023-03-08T03:56:48.927Z,96.98
2023-03-08T03:59:17.800Z,97.20
2023-03-08T04:01:45.380Z,96.73
2023-03-08T04:04:19.589Z,96.28
2023-03-08T04:06:47.598Z,96.31
2023-03-08T04:09:18.558Z,96.04
2023-03-08T04:11:51.569Z,95.71
2023-03-08T04:14:20.894Z,95.95
2023-03-08T04:16:48.751Z,95.98
2023-03-08T04:19:25.703Z,96.18
2023-03-08T04:21:55.511Z,95.96
2023-03-08T04:24:24.876Z,96.68
2023-03-08T04:26:55.600Z,96.45
2023-03-08T04:29:22.986Z,96.67
2023-03-08T04:31:49.622Z,96.58
2023-03-08T04:34:19.110Z,96.70
2023-03-08T04:36:48.696Z,96.89
2023-03-08T04:39:15.286Z,96.97
2023-03-08T04:41:42.035Z,97.03
2023-03-08T04:44:21.955Z,97.07
2023-03-08T04:46:51.130Z,97.34
2023-03-08T04:49:27.297Z,97.31
2023-03-08T04:51:59.338Z,97.49
2023-03-08T04:54:27.418Z,97.74
2023-03-08T04:57:00.478Z,98.04
2023-03-08T04:59:26.971Z,98.23
2023-03-08T05:01:56.648Z,98.35
2023-03-08T05:04:24.464Z,98.16
2023-03-08T05:06:52.028Z,98.30
2023-03-08T05:09:23.551Z,98.39
2023-03-08T05:11:51.537Z,98.78
2023-03-08T05:14:18.207Z,98.86
2023-03-08T05:16:44.862Z,98.59
2023-03-08T05:19:11.644Z,98.72
2023-03-08T05:21:45.809Z,99.02
2023-03-08T05:24:13.635Z,98.87
2023-03-08T05:26:40.339Z,98.95
2023-03-08T05:29:08.480Z,99.09
2023-03-08T05:31:37.759Z,98.98
2023-03-08T05:34:06.212Z,99.43
2023-03-08T05:36:37.016Z,99.55
2023-03-08T05:39:06.918Z,99.63
2023-03-08T05:41:57.043Z,99.64
2023-03-08T05:44:29.152Z,99.54
2023-03-08T05:46:58.064Z,99.68
2023-03-08T05:49:25.693Z,99.46
2023-03-08T05:51:52.292Z,99.21
2023-03-08T05:54:20.124Z,99.15
2023-03-08T05:56:48.778Z,99.02
2023-03-08T05:59:23.455Z,98.95
2023-03-08T06:01:50.466Z,99.38
2023-03-08T06:04:25.076Z,99.23
2023-03-08T06:06:51.751Z,99.48
2023-03-08T06:09:21.824Z,99.42
2023-03-08T06:11:48.373Z,99.53
2023-03-08T06:14:14.874Z,98.63
2023-03-08T06:16:41.654Z,99.14
2023-03-08T06:19:08.579Z,99.11
2023-03-08T06:21:36.415Z,98.79
2023-03-08T06:24:04.426Z,98.63
2023-03-08T06:26:31.180Z,98.31
2023-03-08T06:28:57.917Z,98.50
2023-03-08T06:31:28.370Z,98.08
2023-03-08T06:33:55.564Z,97.53
2023-03-08T06:36:24.882Z,97.38
2023-03-08T06:38:51.590Z,97.57
2023-03-08T06:41:19.544Z,97.12
2023-03-08T06:43:50.111Z,97.24
2023-03-08T06:46:18.579Z,97.24
2023-03-08T06:48:46.454Z,96.65
2023-03-08T06:51:13.157Z,96.46
2023-03-08T06:53:43.404Z,96.26
2023-03-08T06:56:13.435Z,95.90
2023-03-08T06:58:40.174Z,95.85
2023-03-08T07:01:07.063Z,95.01
2023-03-08T07:03:33.879Z,94.40
2023-03-08T07:06:10.334Z,94.00
2023-03-08T07:08:38.393Z,93.64
2023-03-08T07:11:06.735Z,93.77
2023-03-08T07:13:33.394Z,91.78
2023-03-08T07:16:00.054Z,91.06
2023-03-08T07:18:26.700Z,89.68
2023-03-08T07:20:55.757Z,89.33
2023-03-08T07:23:23.038Z,87.89
2023-03-08T07:25:49.700Z,88.38
2023-03-08T07:28:16.605Z,88.18
2023-03-08T07:30:51.514Z,88.46
2023-03-08T07:33:20.538Z,88.87
2023-03-08T07:35:47.498Z,89.07
2023-03-08T07:38:14.829Z,89.57
2023-03-08T07:40:42.311Z,89.37
2023-03-08T07:43:09.263Z,89.69
2023-03-08T07:45:54.766Z,89.79
2023-03-08T07:48:21.280Z,89.17
2023-03-08T07:50:47.846Z,88.55
2023-03-08T07:53:15.015Z,88.07
2023-03-08T07:55:41.505Z,87.90
2023-03-08T07:58:08.019Z,87.92
2023-03-08T08:00:34.586Z,87.53
2023-03-08T08:03:01.177Z,87.04
2023-03-08T08:05:27.715Z,87.37
2023-03-08T08:07:54.309Z,85.69
2023-03-08T08:10:20.903Z,85.86
2023-03-08T08:12:47.344Z,85.75
2023-03-08T08:15:13.842Z,85.36
2023-03-08T08:17:40.283Z,84.89
2023-03-08T08:20:08.164Z,83.82
2023-03-08T08:22:38.006Z,83.12
2023-03-08T08:25:06.582Z,84.12
2023-03-08T08:27:33.642Z,83.26
2023-03-08T08:30:00.384Z,83.17
2023-03-08T08:32:27.269Z,82.65
2023-03-08T08:34:53.830Z,82.18
2023-03-08T08:37:20.264Z,81.01
2023-03-08T08:39:46.808Z,80.64
2023-03-08T08:42:13.236Z,80.06
2023-03-08T08:44:39.691Z,78.51
2023-03-08T08:47:06.125Z,79.16
2023-03-08T08:49:32.614Z,78.83
2023-03-08T08:51:59.047Z,78.53
2023-03-08T08:54:25.593Z,78.12
2023-03-08T08:56:52.088Z,77.54
2023-03-08T08:59:18.762Z,76.52
2023-03-08T09:01:45.259Z,76.50
2023-03-08T09:04:13.615Z,74.41
2023-03-08T09:06:40.623Z,74.88
2023-03-08T09:09:07.248Z,75.21
2023-03-08T09:11:39.907Z,74.67
2023-03-08T09:14:15.344Z,74.78
2023-03-08T09:16:42.060Z,74.81
2023-03-08T09:19:08.918Z,73.96
2023-03-08T09:21:36.156Z,73.34
2023-03-08T09:24:05.653Z,73.57
2023-03-08T09:26:33.501Z,74.05
2023-03-08T09:29:05.407Z,73.93
2023-03-08T09:31:33.407Z,73.86
2023-03-08T09:34:00.261Z,73.51
2023-03-08T09:36:28.788Z,73.91
2023-03-08T09:38:56.256Z,73.61
2023-03-08T09:41:22.839Z,72.97
2023-03-08T09:43:55.826Z,73.18
2023-03-08T09:46:33.955Z,72.05
2023-03-08T09:49:03.552Z,72.03
2023-03-08T09:51:36.482Z,70.99
2023-03-08T09:54:08.276Z,71.01
2023-03-08T09:56:45.952Z,71.07
2023-03-08T09:59:16.383Z,70.90
2023-03-08T10:02:01.195Z,71.14
2023-03-08T10:05:13.189Z,70.45
2023-03-08T10:07:58.975Z,70.39
2023-03-08T10:10:33.725Z,69.67
2023-03-08T10:13:38.353Z,69.22
2023-03-08T10:16:11.309Z,68.29
2023-03-08T10:18:54.808Z,68.23
2023-03-08T10:21:25.154Z,68.61
2023-03-08T10:23:59.639Z,67.57
2023-03-08T10:26:27.385Z,68.10
2023-03-08T10:28:54.081Z,67.98
2023-03-08T10:31:29.829Z,66.69
2023-03-08T10:34:11.016Z,66.62
2023-03-08T10:36:57.545Z,65.47
2023-03-08T10:39:24.072Z,66.06
2023-03-08T10:41:54.442Z,66.15
2023-03-08T10:44:42.667Z,64.13
2023-03-08T10:47:36.517Z,64.81
2023-03-08T10:50:09.266Z,64.01
2023-03-08T10:52:35.978Z,65.12
2023-03-08T10:55:13.886Z,64.74
2023-03-08T10:57:46.065Z,65.04
2023-03-08T11:00:33.212Z,63.81
2023-03-08T11:03:19.584Z,64.83
2023-03-08T11:06:24.899Z,63.91
2023-03-08T11:09:02.994Z,63.36
2023-03-08T11:11:41.174Z,64.49
2023-03-08T11:14:11.020Z,64.39
2023-03-08T11:16:44.210Z,64.46
2023-03-08T11:19:43.284Z,63.94
2023-03-08T11:22:31.528Z,63.90
2023-03-08T11:25:13.211Z,64.47
2023-03-08T11:28:17.528Z,64.62
2023-03-08T11:31:12.605Z,65.00
2023-03-08T11:34:31.278Z,64.92
2023-03-08T11:37:13.010Z,63.23
2023-03-08T11:39:46.355Z,63.86
2023-03-08T11:42:25.843Z,63.66
2023-03-08T11:45:07.601Z,62.66
2023-03-08T11:47:40.121Z,62.80
2023-03-08T11:50:25.617Z,62.52
2023-03-08T11:53:18.514Z,62.82
2023-03-08T11:56:20.420Z,63.00
2023-03-08T11:58:50.864Z,62.86
2023-03-08T12:01:22.493Z,63.15
2023-03-08T12:03:53.544Z,64.68
2023-03-08T12:06:30.750Z,64.89
2023-03-08T12:09:05.039Z,64.51
2023-03-08T12:11:44.400Z,65.14
2023-03-08T12:14:18.471Z,65.17
2023-03-08T12:16:54.771Z,65.05
2023-03-08T12:19:28.846Z,65.47
2023-03-08T12:22:07.418Z,65.98
2023-03-08T12:24:46.572Z,66.55
2023-03-08T12:27:18.469Z,66.38
2023-03-08T12:29:52.735Z,66.46
2023-03-08T12:32:20.674Z,67.50
2023-03-08T12:34:48.333Z,67.97
2023-03-08T12:37:28.285Z,68.40
2023-03-08T12:40:41.348Z,69.56
2023-03-08T12:43:13.974Z,70.45
2023-03-08T12:45:43.013Z,71.55
2023-03-08T12:48:18.874Z,72.23
2023-03-08T12:50:54.199Z,73.15
2023-03-08T12:53:21.705Z,73.03
2023-03-08T12:56:00.431Z,73.20
2023-03-08T12:58:27.297Z,72.79
2023-03-08T13:01:07.291Z,72.66
2023-03-08T13:03:38.538Z,72.96
2023-03-08T13:06:36.519Z,73.03
2023-03-08T13:09:22.505Z,73.17
2023-03-08T13:12:01.805Z,73.61
2023-03-08T13:14:40.576Z,72.75
2023-03-08T13:17:33.677Z,72.83
2023-03-08T13:20:14.482Z,71.64
2023-03-08T13:22:54.037Z,77.47
2023-03-08T13:25:42.380Z,73.99
2023-03-08T13:28:20.543Z,72.35
2023-03-08T13:30:53.526Z,72.33
2023-03-08T13:33:27.005Z,71.88
2023-03-08T13:36:05.929Z,71.51
2023-03-08T13:38:35.942Z,70.88
2023-03-08T13:41:03.182Z,70.58
2023-03-08T13:43:31.794Z,70.70
2023-03-08T13:46:16.559Z,70.53
2023-03-08T13:48:44.984Z,71.59
2023-03-08T13:51:17.971Z,72.36
2023-03-08T13:53:45.321Z,73.57
2023-03-08T13:56:23.078Z,73.80
2023-03-08T13:58:50.631Z,74.05
2023-03-08T14:01:19.842Z,74.32
2023-03-08T14:03:46.959Z,74.48
2023-03-08T14:06:29.966Z,74.62
2023-03-08T14:09:03.250Z,75.23
2023-03-08T14:11:33.324Z,75.25
2023-03-08T14:14:02.473Z,75.39
2023-03-08T14:16:29.141Z,76.01
2023-03-08T14:18:56.768Z,75.77
2023-03-08T14:21:30.398Z,74.76
2023-03-08T14:24:00.185Z,74.54
2023-03-08T14:26:26.747Z,75.24
2023-03-08T14:29:11.214Z,75.06
2023-03-08T14:31:39.122Z,75.28
2023-03-08T14:34:19.126Z,75.37
2023-03-08T14:36:55.223Z,75.75
2023-03-08T14:39:24.147Z,74.64
2023-03-08T14:41:50.758Z,75.15
2023-03-08T14:44:21.597Z,75.06
2023-03-08T14:46:48.479Z,75.10
2023-03-08T14:49:23.050Z,74.70
2023-03-08T14:51:49.995Z,75.15
2023-03-08T14:54:36.212Z,75.32
2023-03-08T14:57:16.618Z,75.65
2023-03-08T14:59:43.750Z,74.77
2023-03-08T15:02:13.354Z,75.24
2023-03-08T15:04:40.741Z,75.42
2023-03-08T15:07:07.684Z,75.88
2023-03-08T15:09:34.865Z,76.58
2023-03-08T15:12:01.924Z,76.33
2023-03-08T15:14:30.448Z,76.56
2023-03-08T15:16:58.222Z,76.61
2023-03-08T15:19:25.006Z,76.47
2023-03-08T15:21:51.708Z,77.09
2023-03-08T15:24:19.325Z,77.12
2023-03-08T15:26:46.081Z,77.16
2023-03-08T15:29:30.294Z,77.23
2023-03-08T15:31:57.680Z,77.32
2023-03-08T15:34:27.486Z,77.16
2023-03-08T15:36:55.071Z,76.32
2023-03-08T15:39:21.689Z,76.28
2023-03-08T15:41:48.512Z,77.36
2023-03-08T15:44:14.991Z,77.19
2023-03-08T15:46:41.572Z,78.23
2023-03-08T15:49:08.818Z,78.42
2023-03-08T15:51:37.259Z,79.46
2023-03-08T15:54:05.740Z,79.74
2023-03-08T15:56:32.287Z,81.34
2023-03-08T15:58:58.828Z,80.84
2023-03-08T16:01:27.086Z,81.81
2023-03-08T16:03:57.310Z,81.62
2023-03-08T16:06:24.816Z,82.54
2023-03-08T16:08:51.353Z,82.11
2023-03-08T16:11:22.117Z,82.64
2023-03-08T16:13:51.224Z,84.24
2023-03-08T16:16:18.497Z,84.12
2023-03-08T16:18:45.143Z,85.70
2023-03-08T16:21:11.929Z,85.68
2023-03-08T16:23:39.630Z,87.01
2023-03-08T16:26:16.186Z,87.66
2023-03-08T16:28:45.875Z,87.37
2023-03-08T16:31:12.935Z,86.58
2023-03-08T16:33:39.987Z,88.19
2023-03-08T16:36:06.993Z,88.08
2023-03-08T16:38:33.519Z,89.45
2023-03-08T16:41:12.231Z,90.48
2023-03-08T16:43:47.427Z,91.34
2023-03-08T16:46:17.531Z,91.39
2023-03-08T16:48:44.089Z,91.44
2023-03-08T16:51:15.181Z,92.53
2023-03-08T16:53:41.926Z,92.99
2023-03-08T16:56:08.512Z,92.38
2023-03-08T16:58:35.105Z,92.68
2023-03-08T17:01:01.597Z,93.22
2023-03-08T17:03:28.042Z,92.74
2023-03-08T17:05:54.486Z,93.62
2023-03-08T17:08:20.951Z,93.44
2023-03-08T17:10:47.407Z,92.82
2023-03-08T17:13:13.914Z,93.41
2023-03-08T17:15:42.876Z,94.04
2023-03-08T17:18:10.299Z,93.84
2023-03-08T17:20:41.597Z,93.63
2023-03-08T17:23:10.029Z,94.40
2023-03-08T17:25:40.908Z,93.95
2023-03-08T17:28:08.704Z,94.20
2023-03-08T17:30:35.523Z,93.96
2023-03-08T17:33:02.047Z,93.71
2023-03-08T17:35:28.854Z,94.34
2023-03-08T17:37:55.463Z,94.08
2023-03-08T17:40:22.090Z,94.53
2023-03-08T17:42:48.646Z,94.63
2023-03-08T17:45:16.261Z,94.70
2023-03-08T17:47:43.346Z,94.53
2023-03-08T17:50:13.141Z,95.13
2023-03-08T17:52:40.650Z,94.88
2023-03-08T17:55:07.714Z,95.44
2023-03-08T17:57:36.004Z,95.75
2023-03-08T18:00:05.490Z,96.09
2023-03-08T18:02:33.608Z,95.09
2023-03-08T18:05:00.553Z,94.94
2023-03-08T18:07:29.239Z,95.37
2023-03-08T18:09:55.842Z,95.79
2023-03-08T18:12:22.689Z,95.57
2023-03-08T18:14:52.415Z,95.91
2023-03-08T18:17:20.345Z,95.35
2023-03-08T18:19:47.661Z,95.73
2023-03-08T18:22:15.091Z,95.96
2023-03-08T18:24:42.113Z,95.43
2023-03-08T18:27:08.793Z,95.74
2023-03-08T18:29:35.938Z,95.99
2023-03-08T18:32:03.736Z,95.56
2023-03-08T18:34:30.246Z,95.00
2023-03-08T18:36:58.789Z,95.63
2023-03-08T18:39:25.993Z,95.30
2023-03-08T18:41:56.756Z,95.11
2023-03-08T18:44:24.304Z,95.80
2023-03-08T18:46:50.886Z,96.10
2023-03-08T18:49:17.506Z,95.79
2023-03-08T18:51:44.332Z,96.30
2023-03-08T18:54:13.622Z,96.32
2023-03-08T18:56:40.339Z,96.20
2023-03-08T18:59:07.993Z,96.49
2023-03-08T19:01:36.600Z,96.44
2023-03-08T19:04:06.176Z,96.85
2023-03-08T19:06:33.118Z,96.69
2023-03-08T19:08:59.739Z,96.54
2023-03-08T19:11:28.183Z,96.35
2023-03-08T19:13:54.757Z,96.22
2023-03-08T19:16:32.577Z,96.30
2023-03-08T19:19:02.451Z,96.13
2023-03-08T19:21:35.065Z,96.22
2023-03-08T19:24:02.070Z,96.25
2023-03-08T19:26:37.078Z,96.33
2023-03-08T19:29:18.527Z,96.49
2023-03-08T19:32:02.345Z,96.38
2023-03-08T19:34:31.427Z,96.46
2023-03-08T19:36:58.815Z,96.54
2023-03-08T19:39:28.869Z,96.40
2023-03-08T19:41:57.793Z,96.84
2023-03-08T19:44:25.115Z,96.19
2023-03-08T19:46:53.232Z,96.52
2023-03-08T19:49:22.677Z,96.12
2023-03-08T19:51:51.341Z,95.65
2023-03-08T19:54:18.868Z,95.94
2023-03-08T19:56:45.496Z,95.73
2023-03-08T19:59:12.332Z,95.67
2023-03-08T20:01:39.490Z,95.58
2023-03-08T20:04:06.747Z,95.57
2023-03-08T20:06:36.612Z,95.75
2023-03-08T20:09:04.958Z,95.40
2023-03-08T20:11:31.841Z,95.88
2023-03-08T20:13:58.685Z,95.60
2023-03-08T20:16:26.561Z,95.79
2023-03-08T20:18:55.858Z,95.17
2023-03-08T20:21:24.237Z,95.55
2023-03-08T20:23:55.247Z,95.31
2023-03-08T20:26:23.091Z,95.34
2023-03-08T20:28:50.976Z,95.47
2023-03-08T20:31:18.486Z,95.56
2023-03-08T20:33:46.154Z,95.20
2023-03-08T20:36:12.886Z,95.56
2023-03-08T20:38:39.427Z,95.61
2023-03-08T20:41:11.840Z,95.45
2023-03-08T20:43:39.216Z,95.50
2023-03-08T20:46:09.306Z,95.86
2023-03-08T20:48:37.952Z,95.64
2023-03-08T20:51:06.018Z,95.40
2023-03-08T20:53:33.395Z,95.64
2023-03-08T20:56:04.084Z,95.44
2023-03-08T20:58:30.555Z,95.40
2023-03-08T21:00:57.021Z,95.37
2023-03-08T21:03:23.693Z,95.74
2023-03-08T21:05:50.212Z,95.43
2023-03-08T21:08:17.071Z,95.70
2023-03-08T21:10:43.548Z,95.91
2023-03-08T21:13:12.903Z,95.75
2023-03-08T21:15:40.107Z,95.45
2023-03-08T21:18:06.657Z,95.73
2023-03-08T21:20:37.270Z,96.04
2023-03-08T21:23:03.929Z,95.74
2023-03-08T21:25:34.084Z,96.12
2023-03-08T21:28:00.617Z,96.13
2023-03-08T21:30:28.218Z,96.26
2023-03-08T21:32:54.975Z,96.18
2023-03-08T21:35:22.879Z,96.52
2023-03-08T21:37:49.457Z,96.55
2023-03-08T21:40:16.053Z,96.57
2023-03-08T21:42:42.514Z,97.01
2023-03-08T21:45:09.859Z,96.63
2023-03-08T21:47:36.364Z,97.09
2023-03-08T21:50:02.976Z,97.09
2023-03-08T21:52:29.512Z,97.01
2023-03-08T21:54:56.220Z,97.07
2023-03-08T21:57:22.742Z,97.20
2023-03-08T21:59:49.339Z,96.78
2023-03-08T22:02:15.858Z,97.29
2023-03-08T22:04:42.318Z,96.81
2023-03-08T22:07:08.765Z,96.95
2023-03-08T22:09:35.445Z,96.93
2023-03-08T22:12:01.994Z,96.95
2023-03-08T22:14:28.834Z,97.03
2023-03-08T22:16:56.439Z,96.85
2023-03-08T22:19:23.018Z,96.86
2023-03-08T22:21:49.694Z,97.18
2023-03-08T22:24:16.218Z,96.94
2023-03-08T22:26:42.723Z,96.30
2023-03-08T22:29:09.377Z,96.62
2023-03-08T22:31:35.854Z,96.54
2023-03-08T22:34:02.465Z,96.44
2023-03-08T22:36:29.274Z,96.10
2023-03-08T22:38:55.874Z,96.16
2023-03-08T22:41:25.645Z,96.87
2023-03-08T22:43:52.852Z,96.25
2023-03-08T22:46:22.911Z,96.38
2023-03-08T22:48:50.286Z,96.38
2023-03-08T22:51:18.377Z,96.37
2023-03-08T22:53:45.030Z,96.88
2023-03-08T22:56:21.122Z,96.38
2023-03-08T22:58:47.680Z,96.53
2023-03-08T23:01:16.544Z,96.87
2023-03-08T23:03:43.799Z,96.97
2023-03-08T23:06:10.835Z,96.83
2023-03-08T23:08:37.969Z,97.11
2023-03-08T23:11:04.709Z,97.04
2023-03-08T23:13:34.207Z,96.98
2023-03-08T23:16:01.728Z,96.79
2023-03-08T23:18:28.280Z,96.69
2023-03-08T23:20:55.099Z,96.84
2023-03-08T23:23:25.011Z,96.98
2023-03-08T23:25:52.056Z,96.41
2023-03-08T23:28:19.537Z,96.48
2023-03-08T23:30:46.012Z,96.60
2023-03-08T23:33:12.472Z,96.59
2023-03-08T23:35:39.088Z,96.47
2023-03-08T23:38:05.564Z,97.06
2023-03-08T23:40:32.178Z,96.76
2023-03-08T23:42:58.646Z,96.83
2023-03-08T23:45:25.343Z,97.70
2023-03-08T23:47:51.788Z,97.54
2023-03-08T23:50:18.481Z,97.65
2023-03-08T23:52:45.021Z,97.34
2023-03-08T23:55:12.228Z,97.52
2023-03-08T23:57:38.720Z,97.78
